Startpagina
METAR-TAF:

METAR-TAF

Vliegvelden :

Caïro, Egypte

Luchthaven Caïro Internationaal

breedte: 30-08N, lengte: 031-24E, hoogte: 64 m

Actueel weer

Dit bericht is 6 minuten geleden gemaakt, om 06:30 UTC
Wind 4 kt uit het noordwesten
Temperatuur 28°C
Vochtigheid 66%
Druk 1011 hPa
Zicht: 6000 m
Verspreide wolken op 2500 ft

METAR: HECA 220630Z 32004KT 6000 SCT025 28/21 Q1011 NOSIG

Tijdstip: 08:36 (06:36 UTC)

Verwachting

Dit bericht is 1 uur en het 36 minuten geleden gemaakt, om 05:00 UTC
Verwachting geldig van 22 om 06 UTC tot 23 om 12 UTC
Wind 10 kt uit het noordwesten
Zicht 10 km of meer
geen wolken onder 1500 m en geen cumulonimbus
Tijdelijke
van 22 om 06 UTC tot 22 om 08 UTC
Wind 3 kt uit variabele richting
Zicht: 6000 m

TAF: HECA 220500Z 2206/2312 32010KT CAVOK TEMPO 2206/2208 VRB03KT 6000 NSC

Waarnemingen en weersverwachtingen van meer dan 4000 vliegvelden (METAR en TAF).

De beschikbare stations zijn de gele en rode punten op de kaart.

Ga met uw muis naar het station om de naam te zien.

Klik dan om waarnemingen en weersverwachtingen te zien.

kaart wijzigen: klik op de groene knoppen met een zwart kruis om in te zoomen, op de groene knop met een streepje om uit te zoomen of op de groene pijlen voor aangrenzende kaarten.


METAR-TAF: